createdAt,value
2022-12-06T00:00:46.182Z,59.60
2022-12-06T00:01:46.202Z,50.80
2022-12-06T00:02:46.203Z,50.60
2022-12-06T00:03:46.204Z,50.70
2022-12-06T00:04:46.172Z,57.90
2022-12-06T00:05:46.571Z,56.10
2022-12-06T00:06:46.124Z,54.40
2022-12-06T00:07:46.181Z,51.00
2022-12-06T00:08:46.107Z,50.00
2022-12-06T00:09:46.117Z,51.40
2022-12-06T00:10:46.086Z,51.00
2022-12-06T00:11:46.095Z,51.70
2022-12-06T00:12:46.073Z,53.90
2022-12-06T00:13:46.059Z,47.80
2022-12-06T00:14:46.072Z,50.50
2022-12-06T00:15:46.045Z,51.20
2022-12-06T00:16:46.145Z,58.50
2022-12-06T00:17:46.021Z,58.10
2022-12-06T00:18:46.094Z,53.40
2022-12-06T00:19:46.040Z,52.60
2022-12-06T00:20:46.050Z,54.00
2022-12-06T00:21:45.996Z,56.20
2022-12-06T00:22:45.986Z,48.80
2022-12-06T00:23:46.002Z,54.10
2022-12-06T00:24:46.021Z,52.30
2022-12-06T00:25:45.958Z,48.30
2022-12-06T00:26:45.964Z,49.60
2022-12-06T00:27:45.958Z,50.50
2022-12-06T00:28:45.942Z,49.60
2022-12-06T00:29:45.981Z,56.20
2022-12-06T00:30:45.938Z,52.30
2022-12-06T00:31:45.994Z,57.20
2022-12-06T00:32:45.909Z,57.20
2022-12-06T00:33:45.910Z,51.50
2022-12-06T00:34:45.903Z,60.50
2022-12-06T00:35:45.908Z,57.70
2022-12-06T00:36:45.880Z,53.40
2022-12-06T00:37:45.866Z,56.90
2022-12-06T00:38:45.860Z,56.30
2022-12-06T00:39:45.930Z,57.10
2022-12-06T00:40:45.850Z,54.30
2022-12-06T00:41:45.840Z,56.40
2022-12-06T00:42:45.821Z,61.20
2022-12-06T00:43:45.811Z,60.10
2022-12-06T00:44:45.824Z,54.60
2022-12-06T00:45:45.953Z,54.50
2022-12-06T00:46:45.781Z,52.20
2022-12-06T00:47:45.772Z,59.10
2022-12-06T00:48:45.768Z,55.20
2022-12-06T00:49:45.771Z,54.30
2022-12-06T00:50:45.756Z,52.70
2022-12-06T00:51:45.739Z,49.40
2022-12-06T00:52:45.731Z,55.80
2022-12-06T00:53:45.720Z,51.80
2022-12-06T00:54:45.736Z,52.60
2022-12-06T00:55:45.711Z,53.30
2022-12-06T00:56:45.700Z,53.30
2022-12-06T00:57:45.699Z,52.50
2022-12-06T00:58:45.726Z,53.60
2022-12-06T00:59:45.746Z,54.60
2022-12-06T01:00:45.669Z,51.10
2022-12-06T01:01:45.703Z,47.50
2022-12-06T01:02:45.684Z,45.80
2022-12-06T01:03:45.714Z,39.90
2022-12-06T01:04:45.653Z,44.00
2022-12-06T01:05:45.619Z,39.50
2022-12-06T01:06:45.620Z,38.10
2022-12-06T01:07:45.666Z,41.70
2022-12-06T01:08:45.605Z,34.70
2022-12-06T01:09:45.601Z,31.30
2022-12-06T01:10:45.621Z,33.20
2022-12-06T01:11:46.574Z,29.10
2022-12-06T01:12:45.566Z,28.30
2022-12-06T01:13:45.560Z,29.70
2022-12-06T01:14:45.647Z,29.80
2022-12-06T01:15:45.545Z,29.60
2022-12-06T01:16:45.744Z,28.00
2022-12-06T01:17:45.515Z,27.20
2022-12-06T01:18:45.515Z,33.20
2022-12-06T01:19:45.523Z,34.90
2022-12-06T01:20:45.498Z,36.00
2022-12-06T01:21:45.476Z,37.90
2022-12-06T01:22:45.470Z,40.80
2022-12-06T01:23:45.469Z,39.40
2022-12-06T01:24:45.478Z,42.10
2022-12-06T01:25:45.430Z,36.80
2022-12-06T01:26:45.431Z,33.90
2022-12-06T01:27:45.430Z,28.10
2022-12-06T01:28:45.427Z,28.90
2022-12-06T01:29:45.418Z,26.90
2022-12-06T01:30:45.433Z,25.70
2022-12-06T01:31:45.398Z,27.10
2022-12-06T01:32:45.390Z,24.50
2022-12-06T01:33:45.391Z,24.20
2022-12-06T01:34:45.393Z,24.60
2022-12-06T01:35:45.364Z,25.00
2022-12-06T01:36:45.358Z,25.50
2022-12-06T01:37:45.348Z,22.70
2022-12-06T01:38:45.363Z,24.50
2022-12-06T01:39:45.347Z,24.20
2022-12-06T01:40:45.329Z,23.10
2022-12-06T01:41:45.311Z,22.80
2022-12-06T01:42:45.308Z,22.40
2022-12-06T01:43:45.290Z,23.50
2022-12-06T01:44:45.305Z,21.30
2022-12-06T01:45:45.304Z,21.90
2022-12-06T01:46:45.264Z,21.00
2022-12-06T01:47:45.258Z,21.90
2022-12-06T01:48:45.251Z,21.90
2022-12-06T01:49:45.256Z,21.50
2022-12-06T01:50:45.230Z,20.00
2022-12-06T01:51:45.225Z,22.20
2022-12-06T01:52:45.213Z,21.10
2022-12-06T01:53:45.196Z,23.20
2022-12-06T01:54:45.217Z,21.30
2022-12-06T01:55:45.193Z,21.20
2022-12-06T01:56:45.185Z,20.80
2022-12-06T01:57:45.180Z,21.30
2022-12-06T01:58:45.218Z,21.70
2022-12-06T01:59:45.181Z,20.50
2022-12-06T02:00:45.152Z,21.90
2022-12-06T02:01:45.168Z,22.60
2022-12-06T02:02:45.191Z,21.60
2022-12-06T02:03:45.121Z,21.60
2022-12-06T02:04:45.133Z,21.70
2022-12-06T02:05:45.109Z,22.10
2022-12-06T02:06:45.104Z,21.70
2022-12-06T02:07:45.150Z,22.80
2022-12-06T02:08:45.086Z,20.80
2022-12-06T02:09:45.080Z,21.00
2022-12-06T02:10:45.066Z,22.50
2022-12-06T02:11:45.048Z,21.40
2022-12-06T02:12:45.053Z,22.30
2022-12-06T02:13:45.036Z,21.30
2022-12-06T02:14:45.049Z,20.10
2022-12-06T02:15:45.030Z,22.20
2022-12-06T02:16:45.115Z,20.70
2022-12-06T02:17:45.000Z,25.70
2022-12-06T02:18:44.990Z,22.50
2022-12-06T02:19:45.002Z,22.30
2022-12-06T02:20:44.977Z,21.90
2022-12-06T02:21:44.968Z,21.80
2022-12-06T02:22:44.959Z,23.80
2022-12-06T02:23:44.949Z,23.30
2022-12-06T02:24:44.955Z,23.30
2022-12-06T02:25:44.930Z,21.40
2022-12-06T02:26:44.926Z,25.80
2022-12-06T02:27:44.919Z,22.70
2022-12-06T02:28:44.911Z,23.80
2022-12-06T02:29:44.894Z,22.90
2022-12-06T02:30:45.006Z,22.20
2022-12-06T02:31:44.889Z,22.40
2022-12-06T02:32:44.874Z,23.00
2022-12-06T02:33:44.873Z,24.40
2022-12-06T02:34:44.864Z,23.60
2022-12-06T02:35:44.880Z,26.60
2022-12-06T02:36:44.849Z,25.90
2022-12-06T02:37:44.834Z,26.50
2022-12-06T02:38:44.843Z,24.10
2022-12-06T02:39:44.818Z,22.60
2022-12-06T02:40:44.831Z,22.90
2022-12-06T02:41:44.819Z,22.70
2022-12-06T02:42:44.803Z,26.00
2022-12-06T02:43:44.792Z,22.50
2022-12-06T02:44:44.777Z,23.30
2022-12-06T02:45:44.834Z,23.00
2022-12-06T02:46:44.831Z,23.80
2022-12-06T02:47:44.757Z,24.10
2022-12-06T02:48:44.734Z,22.00
2022-12-06T02:49:44.753Z,16.90
2022-12-06T02:50:44.750Z,18.60
2022-12-06T02:51:44.724Z,20.30
2022-12-06T02:52:44.719Z,19.90
2022-12-06T02:53:44.705Z,20.40
2022-12-06T02:54:44.689Z,18.30
2022-12-06T02:55:45.705Z,19.90
2022-12-06T02:56:44.695Z,18.40
2022-12-06T02:57:44.680Z,17.10
2022-12-06T02:58:44.666Z,18.30
2022-12-06T02:59:44.657Z,14.20
2022-12-06T03:00:44.668Z,15.40
2022-12-06T03:01:44.707Z,16.60
2022-12-06T03:02:44.702Z,14.20
2022-12-06T03:03:44.656Z,14.40
2022-12-06T03:04:45.622Z,15.20
2022-12-06T03:05:44.623Z,15.70
2022-12-06T03:06:44.616Z,14.00
2022-12-06T03:07:44.655Z,13.60
2022-12-06T03:08:44.579Z,15.00
2022-12-06T03:09:44.573Z,13.90
2022-12-06T03:10:44.589Z,12.00
2022-12-06T03:11:44.567Z,13.50
2022-12-06T03:12:44.553Z,12.90
2022-12-06T03:13:44.544Z,13.20
2022-12-06T03:14:44.542Z,12.40
2022-12-06T03:15:44.610Z,13.00
2022-12-06T03:16:44.516Z,14.10
2022-12-06T03:17:44.526Z,13.10
2022-12-06T03:18:44.509Z,14.50
2022-12-06T03:19:44.507Z,15.10
2022-12-06T03:20:44.512Z,14.80
2022-12-06T03:21:44.491Z,13.50
2022-12-06T03:22:44.485Z,13.90
2022-12-06T03:23:44.512Z,15.50
2022-12-06T03:24:44.451Z,14.40
2022-12-06T03:25:44.472Z,13.90
2022-12-06T03:26:44.444Z,15.00
2022-12-06T03:27:44.444Z,14.90
2022-12-06T03:28:44.431Z,14.80
2022-12-06T03:29:44.438Z,14.30
2022-12-06T03:30:44.469Z,14.00
2022-12-06T03:31:44.403Z,14.30
2022-12-06T03:32:44.386Z,15.70
2022-12-06T03:33:44.391Z,15.60
2022-12-06T03:34:44.383Z,15.00
2022-12-06T03:35:44.391Z,14.00
2022-12-06T03:36:44.364Z,15.20
2022-12-06T03:37:44.358Z,15.00
2022-12-06T03:38:44.355Z,14.20
2022-12-06T03:39:44.348Z,14.20
2022-12-06T03:40:44.354Z,14.30
2022-12-06T03:41:44.328Z,13.60
2022-12-06T03:42:44.315Z,13.30
2022-12-06T03:43:44.308Z,14.70
2022-12-06T03:44:44.307Z,12.70
2022-12-06T03:45:44.408Z,12.80
2022-12-06T03:46:44.359Z,12.40
2022-12-06T03:47:44.278Z,12.70
2022-12-06T03:48:44.265Z,11.70
2022-12-06T03:49:44.261Z,12.20
2022-12-06T03:50:44.271Z,12.50
2022-12-06T03:51:44.250Z,11.10
2022-12-06T03:52:44.238Z,11.50
2022-12-06T03:53:44.229Z,10.40
2022-12-06T03:54:44.224Z,12.60
2022-12-06T03:55:44.234Z,10.60
2022-12-06T03:56:44.204Z,11.20
2022-12-06T03:57:44.197Z,11.30
2022-12-06T03:58:44.192Z,12.00
2022-12-06T03:59:44.189Z,11.90
2022-12-06T04:00:44.189Z,10.20
2022-12-06T04:01:44.219Z,11.50
2022-12-06T04:02:44.161Z,11.30
2022-12-06T04:03:44.196Z,12.60
2022-12-06T04:04:44.142Z,11.30
2022-12-06T04:05:44.155Z,11.60
2022-12-06T04:06:44.132Z,12.20
2022-12-06T04:07:44.177Z,12.10
2022-12-06T04:08:44.124Z,13.00
2022-12-06T04:09:44.109Z,13.30
2022-12-06T04:10:44.124Z,12.40
2022-12-06T04:11:44.084Z,12.90
2022-12-06T04:12:44.187Z,11.50
2022-12-06T04:13:44.075Z,13.70
2022-12-06T04:14:44.077Z,12.20
2022-12-06T04:15:44.147Z,12.60
2022-12-06T04:16:44.053Z,11.60
2022-12-06T04:17:44.036Z,13.20
2022-12-06T04:18:44.036Z,12.40
2022-12-06T04:19:46.985Z,12.40
2022-12-06T04:20:45.044Z,13.80
2022-12-06T04:21:44.014Z,14.00
2022-12-06T04:22:44.007Z,13.50
2022-12-06T04:23:43.999Z,13.30
2022-12-06T04:24:43.993Z,12.40
2022-12-06T04:25:44.018Z,12.50
2022-12-06T04:26:43.997Z,12.50
2022-12-06T04:27:43.973Z,13.20
2022-12-06T04:28:43.963Z,12.00
2022-12-06T04:29:43.952Z,11.80
2022-12-06T04:30:43.963Z,13.60
2022-12-06T04:31:44.084Z,11.60
2022-12-06T04:32:43.991Z,12.20
2022-12-06T04:33:43.914Z,15.70
2022-12-06T04:34:43.925Z,12.00
2022-12-06T04:35:43.923Z,12.40
2022-12-06T04:36:43.899Z,17.50
2022-12-06T04:37:43.888Z,13.10
2022-12-06T04:38:43.878Z,12.10
2022-12-06T04:39:43.869Z,12.90
2022-12-06T04:40:44.889Z,14.30
2022-12-06T04:41:43.856Z,12.60
2022-12-06T04:42:43.850Z,12.10
2022-12-06T04:43:43.845Z,14.10
2022-12-06T04:44:43.837Z,12.90
2022-12-06T04:45:43.859Z,12.90
2022-12-06T04:46:43.863Z,14.20
2022-12-06T04:47:43.811Z,17.20
2022-12-06T04:48:43.811Z,13.00
2022-12-06T04:49:43.794Z,13.70
2022-12-06T04:50:43.809Z,13.20
2022-12-06T04:51:43.781Z,13.90
2022-12-06T04:52:43.766Z,12.70
2022-12-06T04:53:43.767Z,12.80
2022-12-06T04:54:43.758Z,16.60
2022-12-06T04:55:43.767Z,13.40
2022-12-06T04:56:43.742Z,13.00
2022-12-06T04:57:43.734Z,14.00
2022-12-06T04:58:43.728Z,13.70
2022-12-06T04:59:43.719Z,16.60
2022-12-06T05:00:43.849Z,12.40
2022-12-06T05:01:43.708Z,12.60
2022-12-06T05:02:43.704Z,13.80
2022-12-06T05:03:44.481Z,12.50
2022-12-06T05:04:44.673Z,12.80
2022-12-06T05:05:43.669Z,14.20
2022-12-06T05:06:43.673Z,15.30
2022-12-06T05:07:43.674Z,13.60
2022-12-06T05:08:43.646Z,13.40
2022-12-06T05:09:43.637Z,10.70
2022-12-06T05:10:43.629Z,12.90
2022-12-06T05:11:43.633Z,11.90
2022-12-06T05:12:43.612Z,10.70
2022-12-06T05:13:43.601Z,12.50
2022-12-06T05:14:43.591Z,12.70
2022-12-06T05:15:43.594Z,12.50
2022-12-06T05:16:43.698Z,12.30
2022-12-06T05:17:43.571Z,12.00
2022-12-06T05:18:43.572Z,12.50
2022-12-06T05:19:43.554Z,13.00
2022-12-06T05:20:43.530Z,15.80
2022-12-06T05:21:43.555Z,12.90
2022-12-06T05:22:43.533Z,11.80
2022-12-06T05:23:43.525Z,11.90
2022-12-06T05:24:43.507Z,11.90
2022-12-06T05:25:43.507Z,10.70
2022-12-06T05:26:43.517Z,12.60
2022-12-06T05:27:43.483Z,11.40
2022-12-06T05:28:43.482Z,12.00
2022-12-06T05:29:43.465Z,12.10
2022-12-06T05:30:43.461Z,11.40
2022-12-06T05:31:43.524Z,11.70
2022-12-06T05:32:43.432Z,10.90
2022-12-06T05:33:43.435Z,11.20
2022-12-06T05:34:43.428Z,11.10
2022-12-06T05:35:43.417Z,12.20
2022-12-06T05:36:43.420Z,11.10
2022-12-06T05:37:43.401Z,12.40
2022-12-06T05:38:48.396Z,12.20
2022-12-06T05:39:45.383Z,14.70
2022-12-06T05:40:43.376Z,10.40
2022-12-06T05:41:43.390Z,11.40
2022-12-06T05:42:43.364Z,10.20
2022-12-06T05:43:43.351Z,10.20
2022-12-06T05:44:43.336Z,11.50
2022-12-06T05:45:43.383Z,11.80
2022-12-06T05:46:43.344Z,9.80
2022-12-06T05:47:43.322Z,10.40
2022-12-06T05:48:43.310Z,13.90
2022-12-06T05:49:43.302Z,11.10
2022-12-06T05:50:43.298Z,10.60
2022-12-06T05:51:43.308Z,10.20
2022-12-06T05:52:43.289Z,10.40
2022-12-06T05:53:43.267Z,10.50
2022-12-06T05:54:43.261Z,9.90
2022-12-06T05:55:43.260Z,12.30
2022-12-06T05:56:43.268Z,12.00
2022-12-06T05:57:47.240Z,10.00
2022-12-06T05:58:44.234Z,11.30
2022-12-06T05:59:43.224Z,11.40
2022-12-06T06:00:43.202Z,10.60
2022-12-06T06:01:43.270Z,8.50
2022-12-06T06:02:43.300Z,12.40
2022-12-06T06:03:47.398Z,10.10
2022-12-06T06:04:44.174Z,10.50
2022-12-06T06:05:43.166Z,9.70
2022-12-06T06:06:43.182Z,15.10
2022-12-06T06:08:15.620Z,9.40
2022-12-06T06:08:43.134Z,10.70
2022-12-06T06:09:43.141Z,9.80
2022-12-06T06:10:43.133Z,10.30
2022-12-06T06:11:43.146Z,10.10
2022-12-06T06:12:43.116Z,9.90
2022-12-06T06:13:43.104Z,9.30
2022-12-06T06:14:43.104Z,9.90
2022-12-06T06:15:43.097Z,10.40
2022-12-06T06:16:43.224Z,12.00
2022-12-06T06:17:43.074Z,10.30
2022-12-06T06:18:43.072Z,10.10
2022-12-06T06:19:45.535Z,8.80
2022-12-06T06:20:43.039Z,9.30
2022-12-06T06:21:43.062Z,10.10
2022-12-06T06:22:43.034Z,10.50
2022-12-06T06:23:43.038Z,10.50
2022-12-06T06:24:43.006Z,9.80
2022-12-06T06:25:43.015Z,7.70
2022-12-06T06:26:43.016Z,7.80
2022-12-06T06:27:43.046Z,9.20
2022-12-06T06:28:42.980Z,8.80
2022-12-06T06:29:57.009Z,9.10
2022-12-06T06:30:44.976Z,10.10
2022-12-06T06:31:43.030Z,9.70
2022-12-06T06:32:42.955Z,8.60
2022-12-06T06:33:42.950Z,11.00
2022-12-06T06:34:42.935Z,9.00
2022-12-06T06:35:42.927Z,10.10
2022-12-06T06:36:45.993Z,9.60
2022-12-06T06:37:43.912Z,10.70
2022-12-06T06:38:42.906Z,11.80
2022-12-06T06:39:42.899Z,9.20
2022-12-06T06:40:42.884Z,9.90
2022-12-06T06:41:42.899Z,9.20
2022-12-06T06:42:42.867Z,11.50
2022-12-06T06:43:42.870Z,9.50
2022-12-06T06:44:42.852Z,9.20
2022-12-06T06:45:42.903Z,9.40
2022-12-06T06:46:42.846Z,8.70
2022-12-06T06:47:42.833Z,8.60
2022-12-06T06:48:42.811Z,9.30
2022-12-06T06:49:43.821Z,8.00
2022-12-06T06:50:42.803Z,7.60
2022-12-06T06:51:42.846Z,12.00
2022-12-06T06:52:42.794Z,9.40
2022-12-06T06:53:42.774Z,8.80
2022-12-06T06:54:42.766Z,11.10
2022-12-06T06:55:42.759Z,10.10
2022-12-06T06:56:42.758Z,10.30
2022-12-06T06:57:42.740Z,9.70
2022-12-06T06:58:42.740Z,9.20
2022-12-06T06:59:42.726Z,8.40
2022-12-06T07:00:42.712Z,9.20
2022-12-06T07:01:42.765Z,10.00
2022-12-06T07:02:42.795Z,10.90
2022-12-06T07:03:42.680Z,12.00
2022-12-06T07:04:42.674Z,8.50
2022-12-06T07:05:42.690Z,8.80
2022-12-06T07:06:42.722Z,9.30
2022-12-06T07:07:42.712Z,11.10
2022-12-06T07:08:42.637Z,10.80
2022-12-06T07:09:42.648Z,10.20
2022-12-06T07:10:42.630Z,10.00
2022-12-06T07:11:42.638Z,10.10
2022-12-06T07:12:42.606Z,10.00
2022-12-06T07:13:44.783Z,9.80
2022-12-06T07:14:42.608Z,11.60
2022-12-06T07:15:42.629Z,9.60
2022-12-06T07:16:42.673Z,9.20
2022-12-06T07:17:42.584Z,11.10
2022-12-06T07:18:42.574Z,10.60
2022-12-06T07:19:42.579Z,10.90
2022-12-06T07:20:42.546Z,10.30
2022-12-06T07:21:42.567Z,11.70
2022-12-06T07:22:42.536Z,10.20
2022-12-06T07:23:42.530Z,13.60
2022-12-06T07:24:46.561Z,11.60
2022-12-06T07:25:43.508Z,15.20
2022-12-06T07:26:42.542Z,10.60
2022-12-06T07:27:42.509Z,13.20
2022-12-06T07:28:42.509Z,11.00
2022-12-06T07:29:42.484Z,10.90
2022-12-06T07:30:42.577Z,9.70
2022-12-06T07:31:42.492Z,11.00
2022-12-06T07:32:42.473Z,9.70
2022-12-06T07:33:42.453Z,9.30
2022-12-06T07:34:42.443Z,11.10
2022-12-06T07:36:10.761Z,10.90
2022-12-06T07:36:44.471Z,12.40
2022-12-06T07:37:42.429Z,11.10
2022-12-06T07:38:42.467Z,8.90
2022-12-06T07:39:42.408Z,10.20
2022-12-06T07:41:03.607Z,9.90
2022-12-06T07:41:44.442Z,11.00
2022-12-06T07:42:42.366Z,9.80
2022-12-06T07:43:42.412Z,9.30
2022-12-06T07:44:42.367Z,11.70
2022-12-06T07:45:42.401Z,9.50
2022-12-06T07:46:42.366Z,8.40
2022-12-06T07:47:42.345Z,9.80
2022-12-06T07:48:42.345Z,8.30
2022-12-06T07:49:42.347Z,10.00
2022-12-06T07:50:42.322Z,11.00
2022-12-06T07:51:42.363Z,9.80
2022-12-06T07:52:42.302Z,9.50
2022-12-06T07:53:42.293Z,13.00
2022-12-06T07:54:42.285Z,12.00
2022-12-06T07:55:42.274Z,12.30
2022-12-06T07:56:42.285Z,11.30
2022-12-06T07:57:43.917Z,12.00
2022-12-06T07:58:43.256Z,7.80
2022-12-06T07:59:42.240Z,12.50
2022-12-06T08:00:42.243Z,10.60
2022-12-06T08:01:42.292Z,9.00
2022-12-06T08:02:42.233Z,11.60
2022-12-06T08:03:42.217Z,10.00
2022-12-06T08:04:42.294Z,9.00
2022-12-06T08:05:42.261Z,15.00
2022-12-06T08:06:42.214Z,8.90
2022-12-06T08:07:42.264Z,8.40
2022-12-06T08:08:42.183Z,9.30
2022-12-06T08:09:42.187Z,10.70
2022-12-06T08:10:42.179Z,10.50
2022-12-06T08:11:42.181Z,11.30
2022-12-06T08:12:42.153Z,9.10
2022-12-06T08:13:42.143Z,9.10
2022-12-06T08:14:42.165Z,9.80
2022-12-06T08:15:42.196Z,10.40
2022-12-06T08:16:42.127Z,11.80
2022-12-06T08:17:42.113Z,11.90
2022-12-06T08:18:42.218Z,8.60
2022-12-06T08:19:42.096Z,12.40
2022-12-06T08:20:42.084Z,8.20
2022-12-06T08:21:42.235Z,9.90
2022-12-06T08:22:42.171Z,10.10
2022-12-06T08:23:42.065Z,11.20
2022-12-06T08:24:42.055Z,9.10
2022-12-06T08:25:42.040Z,11.50
2022-12-06T08:26:42.042Z,11.50
2022-12-06T08:27:42.074Z,9.20
2022-12-06T08:28:42.017Z,9.70
2022-12-06T08:29:42.013Z,10.40
2022-12-06T08:30:42.107Z,9.80
2022-12-06T08:31:42.049Z,11.10
2022-12-06T08:32:42.010Z,10.70
2022-12-06T08:33:42.089Z,11.00
2022-12-06T08:34:41.970Z,9.90
2022-12-06T08:35:41.964Z,13.50
2022-12-06T08:36:41.971Z,10.50
2022-12-06T08:37:41.968Z,13.30
2022-12-06T08:38:41.955Z,10.20
2022-12-06T08:39:41.934Z,11.70
2022-12-06T08:40:41.926Z,11.60
2022-12-06T08:41:41.943Z,11.80
2022-12-06T08:42:41.940Z,14.00
2022-12-06T08:43:41.926Z,11.50
2022-12-06T08:44:41.901Z,9.60
2022-12-06T08:45:41.907Z,11.60
2022-12-06T08:46:41.914Z,10.50
2022-12-06T08:47:41.889Z,14.10
2022-12-06T08:48:43.529Z,11.20
2022-12-06T08:49:42.851Z,12.70
2022-12-06T08:50:41.864Z,11.40
2022-12-06T08:51:41.879Z,11.00
2022-12-06T08:52:41.881Z,12.30
2022-12-06T08:53:41.827Z,12.40
2022-12-06T08:54:41.836Z,12.10
2022-12-06T08:55:41.854Z,13.20
2022-12-06T08:56:41.803Z,11.70
2022-12-06T08:57:41.827Z,11.50
2022-12-06T08:58:41.780Z,11.30
2022-12-06T08:59:41.781Z,10.40
2022-12-06T09:00:41.798Z,10.70
2022-12-06T09:01:41.795Z,10.20
2022-12-06T09:02:41.768Z,12.30
2022-12-06T09:03:41.742Z,9.80
2022-12-06T09:04:41.849Z,10.20
2022-12-06T09:05:41.720Z,9.70
2022-12-06T09:06:41.720Z,9.30
2022-12-06T09:07:41.764Z,8.90
2022-12-06T09:08:41.741Z,8.20
2022-12-06T09:09:41.697Z,8.90
2022-12-06T09:10:41.689Z,8.60
2022-12-06T09:11:41.735Z,9.10
2022-12-06T09:12:41.687Z,7.90
2022-12-06T09:13:41.658Z,8.90
2022-12-06T09:14:41.646Z,9.20
2022-12-06T09:15:41.676Z,8.80
2022-12-06T09:16:41.672Z,11.40
2022-12-06T09:17:41.652Z,8.50
2022-12-06T09:18:41.635Z,9.30
2022-12-06T09:19:41.658Z,8.50
2022-12-06T09:20:41.625Z,9.20
2022-12-06T09:21:41.648Z,8.20
2022-12-06T09:22:41.637Z,8.30
2022-12-06T09:23:41.584Z,8.40
2022-12-06T09:24:41.572Z,10.30
2022-12-06T09:25:41.630Z,8.90
2022-12-06T09:26:41.562Z,10.10
2022-12-06T09:27:41.590Z,14.80
2022-12-06T09:28:41.549Z,11.30
2022-12-06T09:29:41.544Z,12.30
2022-12-06T09:30:41.527Z,13.50
2022-12-06T09:31:41.574Z,11.00
2022-12-06T09:32:41.525Z,10.70
2022-12-06T09:33:41.532Z,14.60
2022-12-06T09:34:41.497Z,14.50
2022-12-06T09:35:41.500Z,15.40
2022-12-06T09:36:41.481Z,11.90
2022-12-06T09:37:41.501Z,12.20
2022-12-06T09:38:41.458Z,13.40
2022-12-06T09:39:41.461Z,14.40
2022-12-06T09:40:43.015Z,12.80
2022-12-06T09:41:41.434Z,10.20
2022-12-06T09:42:41.453Z,10.90
2022-12-06T09:43:41.437Z,11.80
2022-12-06T09:44:41.410Z,14.60
2022-12-06T09:45:41.424Z,12.80
2022-12-06T09:46:41.488Z,10.90
2022-12-06T09:47:41.418Z,13.00
2022-12-06T09:48:47.294Z,10.30
2022-12-06T09:49:43.371Z,11.70
2022-12-06T09:50:41.454Z,10.80
2022-12-06T09:51:41.358Z,12.50
2022-12-06T09:52:41.362Z,12.50
2022-12-06T09:53:41.348Z,10.30
2022-12-06T09:54:45.001Z,11.60
2022-12-06T09:55:42.321Z,11.70
2022-12-06T09:56:41.313Z,11.70
2022-12-06T09:57:41.334Z,10.10
2022-12-06T09:58:41.288Z,10.00
2022-12-06T09:59:41.273Z,10.50
2022-12-06T10:00:41.277Z,10.40
2022-12-06T10:01:41.302Z,11.70
2022-12-06T10:02:41.299Z,12.50
2022-12-06T10:03:41.239Z,15.50
2022-12-06T10:04:41.235Z,11.70
2022-12-06T10:05:41.213Z,12.30
2022-12-06T10:06:41.212Z,12.10
2022-12-06T10:07:41.379Z,12.20
2022-12-06T10:08:41.321Z,12.00
2022-12-06T10:09:41.182Z,12.80
2022-12-06T10:10:41.179Z,11.80
2022-12-06T10:11:41.164Z,14.70
2022-12-06T10:12:41.162Z,11.80
2022-12-06T10:13:41.165Z,11.50
2022-12-06T10:14:41.152Z,12.00
2022-12-06T10:15:41.197Z,13.50
2022-12-06T10:16:41.198Z,11.50
2022-12-06T10:17:41.137Z,14.60
2022-12-06T10:18:41.114Z,13.90
2022-12-06T10:19:41.097Z,10.90
2022-12-06T10:20:41.078Z,13.10
2022-12-06T10:21:41.071Z,13.70
2022-12-06T10:22:41.081Z,13.80
2022-12-06T10:23:41.059Z,11.20
2022-12-06T10:24:41.038Z,13.40
2022-12-06T10:25:41.039Z,10.10
2022-12-06T10:26:41.028Z,11.80
2022-12-06T10:27:41.059Z,14.50
2022-12-06T10:28:41.012Z,154.50
2022-12-06T10:29:41.010Z,110.80
2022-12-06T10:30:40.995Z,26.50
2022-12-06T10:31:41.119Z,15.40
2022-12-06T10:32:41.003Z,15.60
2022-12-06T10:33:40.960Z,10.90
2022-12-06T10:34:44.420Z,12.60
2022-12-06T10:35:42.950Z,13.80
2022-12-06T10:36:40.935Z,13.10
2022-12-06T10:37:40.950Z,10.50
2022-12-06T10:38:40.920Z,11.30
2022-12-06T10:39:40.946Z,10.40
2022-12-06T10:40:40.951Z,11.30
2022-12-06T10:41:40.894Z,12.10
2022-12-06T10:42:40.904Z,12.00
2022-12-06T10:43:40.887Z,15.10
2022-12-06T10:44:40.857Z,13.90
2022-12-06T10:45:40.869Z,12.30
2022-12-06T10:46:40.905Z,11.50
2022-12-06T10:47:40.868Z,11.30
2022-12-06T10:48:40.872Z,12.60
2022-12-06T10:49:40.815Z,12.10
2022-12-06T10:50:40.799Z,12.60
2022-12-06T10:51:40.807Z,14.50
2022-12-06T10:52:40.798Z,13.40
2022-12-06T10:53:40.819Z,10.70
2022-12-06T10:54:40.766Z,13.00
2022-12-06T10:55:40.763Z,13.60
2022-12-06T10:56:40.745Z,14.90
2022-12-06T10:57:40.757Z,13.10
2022-12-06T10:58:40.727Z,13.80
2022-12-06T10:59:40.717Z,13.50
2022-12-06T11:00:40.810Z,14.20
2022-12-06T11:01:40.761Z,12.20
2022-12-06T11:02:40.798Z,12.20
2022-12-06T11:03:40.729Z,15.10
2022-12-06T11:04:40.665Z,13.30
2022-12-06T11:05:40.667Z,13.10
2022-12-06T11:06:40.648Z,12.70
2022-12-06T11:07:40.686Z,13.50
2022-12-06T11:08:40.627Z,13.00
2022-12-06T11:09:40.624Z,12.50
2022-12-06T11:10:40.609Z,11.90
2022-12-06T11:11:40.599Z,12.10
2022-12-06T11:12:40.596Z,10.80
2022-12-06T11:13:40.591Z,11.50
2022-12-06T11:14:40.567Z,11.90
2022-12-06T11:15:40.569Z,13.40
2022-12-06T11:16:40.581Z,11.30
2022-12-06T11:17:40.545Z,16.00
2022-12-06T11:18:40.557Z,15.70
2022-12-06T11:19:40.517Z,24.10
2022-12-06T11:20:40.506Z,30.60
2022-12-06T11:21:40.510Z,35.30
2022-12-06T11:22:40.486Z,68.90
2022-12-06T11:23:40.586Z,86.70
2022-12-06T11:24:46.067Z,54.70
2022-12-06T11:25:41.462Z,35.50
2022-12-06T11:26:40.454Z,28.70
2022-12-06T11:27:40.444Z,15.40
2022-12-06T11:28:40.475Z,12.80
2022-12-06T11:29:40.430Z,16.10
2022-12-06T11:30:40.432Z,23.30
2022-12-06T11:31:40.480Z,35.50
2022-12-06T11:32:40.373Z,51.50
2022-12-06T11:33:40.438Z,81.20
2022-12-06T11:34:40.373Z,41.00
2022-12-06T11:35:40.411Z,33.20
2022-12-06T11:36:40.353Z,30.90
2022-12-06T11:37:44.359Z,25.40
2022-12-06T11:38:41.347Z,23.40
2022-12-06T11:39:40.314Z,25.20
2022-12-06T11:40:40.327Z,29.60
2022-12-06T11:41:40.299Z,97.50
2022-12-06T11:42:40.297Z,60.70
2022-12-06T11:43:40.301Z,62.80
2022-12-06T11:44:43.657Z,67.70
2022-12-06T11:45:41.263Z,66.70
2022-12-06T11:46:40.341Z,58.50
2022-12-06T11:47:40.238Z,51.10
2022-12-06T11:48:40.242Z,44.00
2022-12-06T11:49:40.217Z,30.90
2022-12-06T11:50:40.201Z,35.50
2022-12-06T11:51:40.201Z,38.10
2022-12-06T11:52:40.174Z,53.20
2022-12-06T11:53:40.187Z,35.40
2022-12-06T11:54:40.164Z,29.80
2022-12-06T11:55:40.164Z,23.10
2022-12-06T11:56:40.154Z,20.60
2022-12-06T11:57:40.132Z,18.00
2022-12-06T11:58:40.223Z,17.20
2022-12-06T11:59:40.115Z,18.80
2022-12-06T12:00:40.091Z,16.40
2022-12-06T12:01:40.126Z,16.00
2022-12-06T12:02:40.170Z,17.00
2022-12-06T12:03:40.166Z,14.80
2022-12-06T12:04:40.085Z,14.70
2022-12-06T12:05:40.082Z,13.60
2022-12-06T12:06:40.086Z,12.00
2022-12-06T12:07:40.076Z,14.30
2022-12-06T12:09:08.896Z,17.20
2022-12-06T12:09:40.021Z,14.70
2022-12-06T12:10:39.998Z,13.20
2022-12-06T12:11:40.002Z,11.90
2022-12-06T12:12:39.993Z,14.60
2022-12-06T12:13:40.016Z,13.50
2022-12-06T12:14:39.972Z,12.90
2022-12-06T12:15:39.963Z,15.50
2022-12-06T12:16:40.001Z,13.60
2022-12-06T12:17:39.945Z,14.30
2022-12-06T12:18:39.939Z,13.70
2022-12-06T12:19:39.919Z,13.60
2022-12-06T12:20:39.911Z,12.80
2022-12-06T12:21:39.899Z,12.70
2022-12-06T12:22:39.882Z,15.00
2022-12-06T12:23:39.892Z,16.10
2022-12-06T12:25:03.253Z,13.60
2022-12-06T12:25:41.852Z,14.90
2022-12-06T12:26:39.842Z,14.80
2022-12-06T12:27:39.838Z,10.60
2022-12-06T12:28:39.848Z,7.00
2022-12-06T12:29:39.822Z,6.80
2022-12-06T12:30:39.811Z,7.30
2022-12-06T12:31:39.852Z,9.20
2022-12-06T12:32:39.794Z,10.70
2022-12-06T12:33:39.790Z,14.60
2022-12-06T12:34:42.837Z,16.30
2022-12-06T12:35:39.763Z,14.50
2022-12-06T12:36:39.742Z,16.30
2022-12-06T12:37:39.734Z,15.90
2022-12-06T12:38:39.745Z,17.80
2022-12-06T12:39:39.719Z,16.30
2022-12-06T12:40:39.704Z,18.20
2022-12-06T12:41:39.694Z,16.70
2022-12-06T12:42:39.677Z,15.70
2022-12-06T12:43:39.690Z,16.50
2022-12-06T12:44:40.127Z,17.70
2022-12-06T12:45:40.697Z,19.50
2022-12-06T12:46:39.643Z,18.80
2022-12-06T12:47:39.631Z,17.80
2022-12-06T12:48:39.636Z,16.60
2022-12-06T12:49:39.611Z,15.80
2022-12-06T12:50:39.606Z,17.70
2022-12-06T12:51:43.650Z,17.20
2022-12-06T12:52:39.592Z,17.10
2022-12-06T12:53:39.591Z,17.10
2022-12-06T12:54:39.562Z,15.80
2022-12-06T12:55:39.560Z,15.40